createdAt,value
2022-08-24T00:02:02.685Z,11.70
2022-08-24T00:04:32.105Z,16.13
2022-08-24T00:07:02.197Z,11.45
2022-08-24T00:09:32.737Z,11.05
2022-08-24T00:12:00.774Z,11.23
2022-08-24T00:14:28.524Z,12.52
2022-08-24T00:16:56.384Z,10.85
2022-08-24T00:19:25.376Z,11.65
2022-08-24T00:21:53.047Z,11.27
2022-08-24T00:24:21.172Z,10.02
2022-08-24T00:26:48.959Z,12.20
2022-08-24T00:29:18.565Z,9.52
2022-08-24T00:31:46.821Z,10.02
2022-08-24T00:34:15.143Z,10.50
2022-08-24T00:36:42.831Z,11.13
2022-08-24T00:39:12.337Z,10.80
2022-08-24T00:41:47.368Z,13.80
2022-08-24T00:44:16.898Z,10.65
2022-08-24T00:47:14.170Z,12.55
2022-08-24T00:50:02.441Z,10.85
2022-08-24T00:52:41.814Z,10.00
2022-08-24T00:55:26.484Z,12.43
2022-08-24T00:58:02.847Z,12.18
2022-08-24T01:00:40.205Z,13.60
2022-08-24T01:05:39.916Z,8.80
2022-08-24T01:08:10.856Z,12.85
2022-08-24T01:10:46.906Z,9.90
2022-08-24T01:13:15.745Z,10.55
2022-08-24T01:15:48.627Z,10.93
2022-08-24T01:18:41.052Z,10.70
2022-08-24T01:21:29.477Z,12.38
2022-08-24T01:24:00.817Z,11.93
2022-08-24T01:26:34.610Z,10.05
2022-08-24T01:29:19.873Z,9.77
2022-08-24T01:31:52.228Z,8.63
2022-08-24T01:34:20.790Z,9.18
2022-08-24T01:36:56.238Z,12.20
2022-08-24T01:39:36.003Z,13.32
2022-08-24T01:42:04.973Z,9.75
2022-08-24T01:44:34.973Z,16.60
2022-08-24T01:47:07.528Z,13.45
2022-08-24T01:49:44.469Z,15.10
2022-08-24T01:52:21.137Z,10.13
2022-08-24T01:54:49.952Z,11.25
2022-08-24T01:57:20.456Z,10.98
2022-08-24T01:59:51.571Z,10.77
2022-08-24T02:02:31.135Z,10.82
2022-08-24T02:05:00.368Z,10.93
2022-08-24T02:07:29.749Z,13.63
2022-08-24T02:12:26.689Z,11.90
2022-08-24T02:14:54.452Z,11.18
2022-08-24T02:17:22.117Z,16.88
2022-08-24T02:19:51.403Z,11.93
2022-08-24T02:22:19.955Z,11.50
2022-08-24T02:24:47.638Z,13.25
2022-08-24T02:27:17.051Z,15.45
2022-08-24T02:29:44.774Z,12.60
2022-08-24T02:32:13.772Z,14.32
2022-08-24T02:34:44.122Z,13.07
2022-08-24T02:37:12.693Z,11.68
2022-08-24T02:39:40.503Z,16.40
2022-08-24T02:42:15.468Z,12.95
2022-08-24T02:44:43.237Z,14.50
2022-08-24T02:47:10.933Z,14.00
2022-08-24T02:49:38.670Z,11.70
2022-08-24T02:52:06.973Z,14.90
2022-08-24T02:54:37.156Z,12.07
2022-08-24T02:57:05.397Z,14.27
2022-08-24T02:59:32.933Z,14.77
2022-08-24T03:02:00.689Z,15.85
2022-08-24T03:04:28.780Z,17.20
2022-08-24T03:06:56.443Z,13.65
2022-08-24T03:09:24.016Z,14.57
2022-08-24T03:11:58.780Z,13.52
2022-08-24T03:14:26.477Z,12.52
2022-08-24T03:16:55.031Z,12.13
2022-08-24T03:19:24.106Z,15.90
2022-08-24T03:21:53.656Z,19.00
2022-08-24T03:24:21.707Z,12.77
2022-08-24T03:26:50.403Z,17.33
2022-08-24T03:29:18.105Z,17.38
2022-08-24T03:31:46.198Z,15.93
2022-08-24T03:34:15.186Z,17.73
2022-08-24T03:36:46.841Z,16.05
2022-08-24T03:39:17.165Z,15.73
2022-08-24T03:41:45.701Z,14.23
2022-08-24T03:44:13.235Z,17.80
2022-08-24T03:46:41.674Z,16.60
2022-08-24T03:49:10.358Z,12.82
2022-08-24T03:51:38.857Z,11.65
2022-08-24T03:54:09.655Z,15.02
2022-08-24T03:56:37.769Z,11.95
2022-08-24T03:59:07.662Z,13.80
2022-08-24T04:01:40.403Z,12.43
2022-08-24T04:04:09.729Z,10.50
2022-08-24T04:06:38.778Z,10.10
2022-08-24T04:09:07.867Z,12.88
2022-08-24T04:11:41.511Z,12.40
2022-08-24T04:14:26.724Z,13.68
2022-08-24T04:17:04.961Z,14.10
2022-08-24T04:19:38.194Z,14.98
2022-08-24T04:22:05.756Z,15.77
2022-08-24T04:24:33.378Z,15.45
2022-08-24T04:27:01.271Z,18.85
2022-08-24T04:29:28.815Z,17.10
2022-08-24T04:31:56.366Z,18.02
2022-08-24T04:34:24.874Z,15.88
2022-08-24T04:36:52.505Z,14.15
2022-08-24T04:39:20.173Z,15.60
2022-08-24T04:42:08.198Z,14.98
2022-08-24T04:44:39.796Z,16.35
2022-08-24T04:47:08.836Z,15.05
2022-08-24T04:49:39.219Z,18.23
2022-08-24T04:52:08.551Z,19.02
2022-08-24T04:54:36.641Z,19.20
2022-08-24T04:57:17.411Z,18.02
2022-08-24T04:59:47.381Z,15.70
2022-08-24T05:02:15.273Z,17.60
2022-08-24T05:04:45.342Z,15.65
2022-08-24T05:07:13.730Z,16.23
2022-08-24T05:09:44.890Z,16.92
2022-08-24T05:12:12.471Z,17.63
2022-08-24T05:14:48.753Z,18.48
2022-08-24T05:17:18.116Z,16.30
2022-08-24T05:19:45.874Z,17.25
2022-08-24T05:22:13.722Z,17.90
2022-08-24T05:24:46.994Z,16.17
2022-08-24T05:27:15.971Z,16.23
2022-08-24T05:29:47.541Z,19.88
2022-08-24T05:32:17.998Z,19.40
2022-08-24T05:34:46.142Z,18.30
2022-08-24T05:37:14.180Z,15.52
2022-08-24T05:40:07.504Z,16.98
2022-08-24T05:42:37.454Z,14.38
2022-08-24T05:45:07.170Z,16.20
2022-08-24T05:47:35.581Z,15.35
2022-08-24T05:50:11.491Z,13.35
2022-08-24T05:52:39.093Z,18.50
2022-08-24T05:55:08.101Z,15.48
2022-08-24T05:57:38.216Z,15.10
2022-08-24T06:00:33.508Z,17.08
2022-08-24T06:05:28.982Z,16.77
2022-08-24T06:07:57.912Z,18.48
2022-08-24T06:10:36.740Z,16.20
2022-08-24T06:15:35.881Z,14.77
2022-08-24T06:18:04.825Z,14.52
2022-08-24T06:23:01.771Z,14.63
2022-08-24T06:25:59.796Z,13.05
2022-08-24T06:28:27.965Z,17.92
2022-08-24T06:31:05.873Z,16.35
2022-08-24T06:33:34.697Z,12.60
2022-08-24T06:36:03.578Z,17.25
2022-08-24T06:38:32.584Z,15.40
2022-08-24T06:41:05.802Z,15.80
2022-08-24T06:43:34.833Z,13.63
2022-08-24T06:46:11.514Z,13.23
2022-08-24T06:48:46.726Z,12.82
2022-08-24T06:51:18.524Z,17.85
2022-08-24T06:53:47.236Z,12.70
2022-08-24T06:56:15.950Z,13.43
2022-08-24T06:58:44.924Z,12.40
2022-08-24T07:01:21.664Z,13.35
2022-08-24T07:03:50.745Z,11.18
2022-08-24T07:06:37.283Z,12.27
2022-08-24T07:09:05.644Z,14.18
2022-08-24T07:11:35.118Z,12.35
2022-08-24T07:14:04.052Z,12.30
2022-08-24T07:16:34.830Z,11.63
2022-08-24T07:19:06.195Z,15.35
2022-08-24T07:21:34.385Z,17.35
2022-08-24T07:24:04.241Z,12.63
2022-08-24T07:26:35.638Z,11.90
2022-08-24T07:29:24.982Z,15.33
2022-08-24T07:31:58.819Z,24.95
2022-08-24T07:34:37.694Z,19.08
2022-08-24T07:37:07.918Z,19.35
2022-08-24T07:39:38.550Z,19.52
2022-08-24T07:42:13.287Z,21.08
2022-08-24T07:44:42.241Z,16.77
2022-08-24T07:47:34.712Z,23.60
2022-08-24T07:49:58.436Z,19.95
2022-08-24T07:52:27.982Z,16.20
2022-08-24T07:54:56.536Z,15.38
2022-08-24T07:57:24.906Z,18.52
2022-08-24T07:59:52.916Z,18.98
2022-08-24T08:02:20.559Z,16.05
2022-08-24T08:04:54.496Z,18.48
2022-08-24T08:07:22.072Z,18.33
2022-08-24T08:09:50.917Z,19.35
2022-08-24T08:12:19.425Z,16.50
2022-08-24T08:14:56.351Z,16.55
2022-08-24T08:17:24.534Z,19.15
2022-08-24T08:19:52.371Z,16.85
2022-08-24T08:22:38.576Z,24.40
2022-08-24T08:25:24.821Z,20.73
2022-08-24T08:27:52.706Z,20.60
2022-08-24T08:30:20.546Z,22.00
2022-08-24T08:32:48.366Z,17.42
2022-08-24T08:35:16.104Z,16.65
2022-08-24T08:37:44.409Z,18.83
2022-08-24T08:40:45.476Z,16.70
2022-08-24T08:43:43.725Z,21.48
2022-08-24T08:46:54.258Z,17.08
2022-08-24T08:49:56.388Z,14.23
2022-08-24T08:52:58.089Z,15.15
2022-08-24T08:56:07.301Z,17.75
2022-08-24T08:59:01.750Z,19.55
2022-08-24T09:02:05.526Z,16.95
2022-08-24T09:04:55.203Z,17.23
2022-08-24T09:48:01.484Z,11.48
2022-08-24T09:50:55.983Z,14.93
2022-08-24T09:53:51.002Z,12.63
2022-08-24T09:56:59.800Z,15.85
2022-08-24T10:02:46.402Z,10.50
2022-08-24T10:05:20.091Z,9.10
2022-08-24T10:08:08.531Z,10.40
2022-08-24T10:11:20.376Z,8.52
2022-08-24T10:14:25.100Z,8.95
2022-08-24T10:17:22.857Z,12.18
2022-08-24T10:20:24.578Z,8.75
2022-08-24T10:23:38.409Z,12.48
2022-08-24T10:26:29.525Z,8.90
2022-08-24T10:29:22.456Z,9.13
2022-08-24T10:32:30.511Z,8.25
2022-08-24T10:35:14.705Z,7.95
2022-08-24T10:42:37.880Z,9.98
2022-08-24T10:45:43.540Z,8.30
2022-08-24T10:48:33.371Z,9.40
2022-08-24T10:51:37.131Z,7.72
2022-08-24T10:54:06.645Z,8.57
2022-08-24T10:56:36.818Z,7.22
2022-08-24T10:59:31.742Z,9.23
2022-08-24T11:02:36.725Z,9.40
2022-08-24T11:05:16.995Z,8.35
2022-08-24T11:08:19.936Z,8.68
2022-08-24T11:11:08.009Z,9.48
2022-08-24T11:13:49.431Z,9.18
2022-08-24T11:16:40.653Z,15.07
2022-08-24T11:19:29.722Z,9.40
2022-08-24T11:22:21.473Z,9.70
2022-08-24T11:24:55.013Z,8.48
2022-08-24T11:27:39.961Z,8.32
2022-08-24T11:30:23.525Z,10.05
2022-08-24T11:32:58.568Z,9.63
2022-08-24T11:35:35.230Z,12.60
2022-08-24T11:38:21.079Z,8.00
2022-08-24T11:41:12.902Z,10.75
2022-08-24T11:44:05.865Z,9.40
2022-08-24T11:46:46.765Z,8.35
2022-08-24T11:49:35.367Z,7.75
2022-08-24T11:52:15.764Z,9.23
2022-08-24T11:55:11.198Z,8.55
2022-08-24T11:57:51.065Z,6.93
2022-08-24T12:00:27.000Z,11.02
2022-08-24T12:03:06.980Z,8.90
2022-08-24T12:05:37.491Z,9.00
2022-08-24T12:08:35.264Z,8.63
2022-08-24T12:11:33.365Z,9.25
2022-08-24T12:14:29.724Z,7.93
2022-08-24T12:17:18.853Z,8.90
2022-08-24T12:19:53.501Z,9.93
2022-08-24T12:22:22.397Z,8.88
2022-08-24T12:24:59.882Z,8.80
2022-08-24T12:27:35.386Z,12.70
2022-08-24T12:30:13.232Z,9.40
2022-08-24T12:32:46.230Z,12.18
2022-08-24T12:35:39.331Z,9.85
2022-08-24T12:38:09.561Z,11.32
2022-08-24T12:41:20.246Z,8.75
2022-08-24T12:43:52.529Z,8.57
2022-08-24T12:46:26.177Z,9.73
2022-08-24T12:49:22.484Z,10.50
2022-08-24T12:52:28.584Z,8.57
2022-08-24T12:55:36.000Z,9.13
2022-08-24T12:58:54.061Z,8.75
2022-08-24T13:01:29.778Z,12.30
2022-08-24T13:04:31.649Z,8.65
2022-08-24T13:31:59.719Z,11.43
2022-08-24T13:34:44.309Z,9.52
2022-08-24T13:37:22.318Z,8.50
2022-08-24T13:40:25.246Z,8.18
2022-08-24T13:43:17.746Z,10.60
2022-08-24T13:46:01.553Z,6.80
2022-08-24T13:48:50.413Z,7.78
2022-08-24T13:51:44.698Z,7.43
2022-08-24T13:54:32.365Z,6.65
2022-08-24T13:57:28.877Z,6.43
2022-08-24T14:00:12.734Z,8.00
2022-08-24T14:03:21.335Z,6.40
2022-08-24T14:06:03.769Z,5.70
2022-08-24T14:09:22.711Z,6.82
2022-08-24T14:12:06.587Z,5.80
2022-08-24T14:15:07.533Z,6.20
2022-08-24T14:18:14.021Z,8.38
2022-08-24T14:21:08.131Z,5.13
2022-08-24T14:24:05.282Z,6.85
2022-08-24T14:26:40.256Z,5.35
2022-08-24T14:29:20.256Z,6.40
2022-08-24T14:32:12.203Z,7.95
2022-08-24T14:35:02.872Z,6.47
2022-08-24T14:38:05.664Z,6.03
2022-08-24T14:41:24.285Z,7.25
2022-08-24T14:44:15.910Z,11.52
2022-08-24T14:47:04.531Z,6.10
2022-08-24T14:50:12.885Z,6.03
2022-08-24T14:53:07.329Z,6.90
2022-08-24T14:56:01.117Z,5.68
2022-08-24T14:59:24.358Z,6.55
2022-08-24T15:02:26.093Z,7.57
2022-08-24T15:05:13.653Z,6.28
2022-08-24T15:07:51.616Z,7.05
2022-08-24T15:10:26.362Z,7.72
2022-08-24T15:13:04.451Z,8.82
2022-08-24T15:16:05.639Z,8.35
2022-08-24T15:19:18.089Z,8.02
2022-08-24T15:22:03.830Z,13.02
2022-08-24T15:25:10.899Z,11.15
2022-08-24T15:27:47.834Z,7.68
2022-08-24T15:30:37.288Z,8.23
2022-08-24T15:33:18.900Z,6.95
2022-08-24T15:36:04.224Z,8.75
2022-08-24T15:38:35.871Z,7.35
2022-08-24T15:41:12.853Z,6.22
2022-08-24T15:43:44.770Z,6.60
2022-08-24T15:46:14.084Z,8.98
2022-08-24T15:48:50.909Z,6.35
2022-08-24T15:51:55.111Z,5.03
2022-08-24T15:54:26.786Z,6.13
2022-08-24T15:57:17.571Z,5.00
2022-08-24T15:59:50.835Z,5.72
2022-08-24T16:02:31.406Z,6.15
2022-08-24T16:05:36.149Z,5.32
2022-08-24T16:08:04.015Z,6.50
2022-08-24T16:10:45.231Z,7.63
2022-08-24T16:13:20.599Z,6.38
2022-08-24T16:16:09.205Z,6.75
2022-08-24T16:18:49.884Z,7.78
2022-08-24T16:21:29.863Z,5.47
2022-08-24T16:24:30.153Z,6.05
2022-08-24T16:27:10.577Z,4.72
2022-08-24T16:29:37.938Z,4.80
2022-08-24T16:32:32.554Z,4.68
2022-08-24T16:35:22.259Z,4.88
2022-08-24T16:37:52.343Z,5.55
2022-08-24T16:40:20.770Z,5.22
2022-08-24T16:45:21.636Z,6.80
2022-08-24T16:47:49.738Z,7.05
2022-08-24T16:50:20.603Z,5.78
2022-08-24T16:52:50.199Z,4.90
2022-08-24T16:55:18.151Z,7.95
2022-08-24T16:57:46.482Z,6.22
2022-08-24T17:00:19.220Z,12.38
2022-08-24T17:02:48.292Z,6.65
2022-08-24T17:07:45.147Z,13.00
2022-08-24T17:10:16.924Z,13.70
2022-08-24T17:12:44.576Z,11.18
2022-08-24T17:15:16.541Z,11.23
2022-08-24T17:18:09.794Z,19.73
2022-08-24T17:20:37.340Z,12.13
2022-08-24T17:23:05.877Z,7.55
2022-08-24T17:25:33.538Z,18.50
2022-08-24T17:28:01.708Z,16.30
2022-08-24T17:32:59.738Z,16.33
2022-08-24T17:35:27.520Z,7.50
2022-08-24T17:37:55.430Z,13.90
2022-08-24T17:40:26.649Z,18.27
2022-08-24T17:42:54.398Z,12.70
2022-08-24T17:45:23.077Z,8.18
2022-08-24T17:47:52.456Z,8.02
2022-08-24T17:50:21.816Z,7.13
2022-08-24T17:52:49.740Z,8.55
2022-08-24T17:55:25.082Z,9.15
2022-08-24T17:57:53.364Z,8.70
2022-08-24T18:00:21.050Z,8.55
2022-08-24T18:02:48.559Z,8.63
2022-08-24T18:05:36.582Z,8.70
2022-08-24T18:10:32.566Z,9.18
2022-08-24T18:13:02.211Z,9.95
2022-08-24T18:15:35.996Z,9.25
2022-08-24T18:18:08.656Z,9.30
2022-08-24T18:20:40.719Z,9.20
2022-08-24T18:23:11.145Z,10.30
2022-08-24T18:25:49.302Z,11.13
2022-08-24T18:28:20.698Z,16.63
2022-08-24T18:30:48.623Z,9.40
2022-08-24T18:33:17.578Z,10.75
2022-08-24T18:35:48.693Z,8.80
2022-08-24T18:38:16.534Z,10.25
2022-08-24T18:40:52.381Z,10.50
2022-08-24T18:43:24.121Z,13.80
2022-08-24T18:45:53.281Z,20.60
2022-08-24T18:48:21.667Z,12.82
2022-08-24T18:50:51.816Z,8.90
2022-08-24T18:53:19.972Z,9.80
2022-08-24T18:55:48.473Z,8.88
2022-08-24T18:58:16.447Z,8.85
2022-08-24T19:00:44.415Z,10.60
2022-08-24T19:03:17.632Z,12.60
2022-08-24T19:05:45.604Z,15.25
2022-08-24T19:08:13.628Z,14.02
2022-08-24T19:10:41.146Z,11.15
2022-08-24T19:13:15.428Z,10.07
2022-08-24T19:15:46.714Z,16.55
2022-08-24T19:18:17.474Z,17.55
2022-08-24T19:20:49.686Z,11.43
2022-08-24T19:23:32.441Z,11.23
2022-08-24T19:26:02.470Z,12.30
2022-08-24T19:28:31.308Z,14.93
2022-08-24T19:31:02.609Z,12.95
2022-08-24T19:33:37.127Z,11.82
2022-08-24T19:36:05.781Z,10.95
2022-08-24T19:38:33.801Z,12.88
2022-08-24T19:41:11.181Z,11.82
2022-08-24T19:46:28.559Z,14.52
2022-08-24T19:48:56.440Z,14.55
2022-08-24T19:51:24.692Z,11.85
2022-08-24T19:53:52.938Z,11.55
2022-08-24T19:56:20.850Z,13.50
2022-08-24T19:58:53.663Z,12.70
2022-08-24T20:01:28.965Z,12.32
2022-08-24T20:03:57.080Z,12.63
2022-08-24T20:06:25.806Z,14.55
2022-08-24T20:08:53.787Z,14.77
2022-08-24T20:11:25.234Z,19.20
2022-08-24T20:13:53.849Z,14.60
2022-08-24T20:16:24.687Z,15.13
2022-08-24T20:18:52.634Z,15.50
2022-08-24T20:21:20.640Z,18.70
2022-08-24T20:23:48.267Z,12.07
2022-08-24T20:26:16.100Z,12.02
2022-08-24T20:28:54.959Z,12.50
2022-08-24T20:31:28.442Z,12.93
2022-08-24T20:33:57.510Z,19.55
2022-08-24T20:36:39.301Z,12.57
2022-08-24T20:39:13.202Z,10.75
2022-08-24T20:41:41.307Z,10.68
2022-08-24T20:44:09.329Z,11.07
2022-08-24T20:46:39.798Z,10.95
2022-08-24T20:49:14.521Z,11.07
2022-08-24T20:51:43.327Z,10.57
2022-08-24T20:54:12.167Z,11.23
2022-08-24T20:56:39.902Z,11.20
2022-08-24T20:59:11.288Z,11.18
2022-08-24T21:01:43.653Z,14.05
2022-08-24T21:04:11.866Z,17.17
2022-08-24T21:06:44.813Z,13.65
2022-08-24T21:09:14.218Z,11.50
2022-08-24T21:11:43.569Z,15.30
2022-08-24T21:14:11.276Z,11.93
2022-08-24T21:16:42.047Z,11.43
2022-08-24T21:19:12.928Z,14.38
2022-08-24T21:21:42.567Z,14.63
2022-08-24T21:24:10.865Z,15.77
2022-08-24T21:26:39.668Z,12.98
2022-08-24T21:29:09.569Z,18.95
2022-08-24T21:31:37.610Z,14.10
2022-08-24T21:34:25.012Z,12.83
2022-08-24T21:36:55.001Z,14.55
2022-08-24T21:39:24.373Z,14.07
2022-08-24T21:41:53.476Z,13.52
2022-08-24T21:44:21.012Z,15.65
2022-08-24T21:46:49.994Z,15.13
2022-08-24T21:49:17.623Z,17.23
2022-08-24T21:51:45.115Z,15.93
2022-08-24T21:54:13.461Z,14.30
2022-08-24T21:56:41.069Z,12.60
2022-08-24T21:59:08.674Z,13.57
2022-08-24T22:01:38.710Z,13.80
2022-08-24T22:04:07.046Z,13.90
2022-08-24T22:06:34.771Z,15.40
2022-08-24T22:09:03.296Z,13.98
2022-08-24T22:11:31.654Z,15.52
2022-08-24T22:13:59.933Z,13.43
2022-08-24T22:16:27.905Z,13.43
2022-08-24T22:18:55.818Z,13.93
2022-08-24T22:21:26.353Z,13.10
2022-08-24T22:23:56.655Z,13.18
2022-08-24T22:26:27.129Z,13.38
2022-08-24T22:28:56.823Z,17.15
2022-08-24T22:31:35.997Z,12.65
2022-08-24T22:34:17.275Z,14.30
2022-08-24T22:36:49.210Z,14.05
2022-08-24T22:39:17.377Z,15.75
2022-08-24T22:41:45.517Z,18.00
2022-08-24T22:44:19.691Z,10.90
2022-08-24T22:46:56.967Z,12.82
2022-08-24T22:49:30.465Z,12.82
2022-08-24T22:51:59.529Z,15.20
2022-08-24T22:54:27.250Z,14.68
2022-08-24T22:56:57.249Z,12.73
2022-08-24T22:59:35.811Z,12.82
2022-08-24T23:02:13.603Z,13.93
2022-08-24T23:04:45.198Z,12.98
2022-08-24T23:07:13.096Z,12.93
2022-08-24T23:09:44.590Z,14.10
2022-08-24T23:12:19.569Z,13.57
2022-08-24T23:14:47.849Z,16.08
2022-08-24T23:17:15.664Z,15.02
2022-08-24T23:20:01.674Z,19.33
2022-08-24T23:22:34.642Z,11.40
2022-08-24T23:25:02.881Z,12.60
2022-08-24T23:27:37.167Z,13.10
2022-08-24T23:30:10.756Z,15.18
2022-08-24T23:32:39.812Z,12.40
2022-08-24T23:35:08.321Z,12.57
2022-08-24T23:37:35.998Z,11.00
2022-08-24T23:40:04.990Z,12.88
2022-08-24T23:42:32.473Z,10.95
2022-08-24T23:44:59.985Z,12.27
2022-08-24T23:47:28.804Z,10.05
2022-08-24T23:49:56.493Z,11.23
2022-08-24T23:52:28.560Z,11.43
2022-08-24T23:55:07.073Z,10.60
2022-08-24T23:57:46.792Z,10.57
